Time;durP1;ratioP1;P1;durP2;ratioP2;P2;SDS_P1;SDS_P2;PMS_P1;PMS_P2;Temp;Humidity;BMP_temperature;BMP_pressure;BME280_temperature;BME280_humidity;BME280_pressure;Samples;Min_cycle;Max_cycle;Signal;HPM_P1;HPM_P2
2022/05/15 00:04:28;;;;;;;13.25;11.73;;;;;;;;;;10487554;28;20461;-81
2022/05/15 00:09:32;;;;;;;13.50;11.20;;;;;;;;;;10493907;28;20846;-80
2022/05/15 00:14:35;;;;;;;13.23;11.23;;;;;;;;;;10491086;28;20409;-81
2022/05/15 00:19:37;;;;;;;11.83;10.47;;;;;;;;;;10496261;28;20418;-81
2022/05/15 00:24:40;;;;;;;13.90;11.07;;;;;;;;;;10483257;28;20951;-81
2022/05/15 00:29:42;;;;;;;15.18;11.05;;;;;;;;;;10494198;28;20439;-80
2022/05/15 00:34:43;;;;;;;12.60;11.02;;;;;;;;;;10496141;28;20749;-80
2022/05/15 00:39:47;;;;;;;13.90;12.40;;;;;;;;;;10494867;28;20420;-79
2022/05/15 00:44:49;;;;;;;13.85;12.32;;;;;;;;;;10492496;28;20893;-80
2022/05/15 00:49:53;;;;;;;14.10;12.30;;;;;;;;;;10494878;28;20392;-81
2022/05/15 00:55:01;;;;;;;13.37;11.60;;;;;;;;;;10486125;28;20483;-81
2022/05/15 01:00:11;;;;;;;13.40;11.50;;;;;;;;;;10501439;28;20427;-80
2022/05/15 01:05:14;;;;;;;13.13;11.82;;;;;;;;;;10508362;28;20408;-81
2022/05/15 01:10:18;;;;;;;14.75;11.60;;;;;;;;;;10494764;28;20485;-80
2022/05/15 01:15:23;;;;;;;13.80;12.25;;;;;;;;;;10487097;28;20489;-81
2022/05/15 01:20:29;;;;;;;14.87;12.20;;;;;;;;;;10482496;28;20429;-81
2022/05/15 01:25:35;;;;;;;13.97;12.03;;;;;;;;;;10498404;28;20398;-81
2022/05/15 01:30:39;;;;;;;13.65;12.18;;;;;;;;;;10508879;28;20853;-80
2022/05/15 01:35:41;;;;;;;17.40;12.30;;;;;;;;;;10485971;28;20746;-80
2022/05/15 01:40:44;;;;;;;12.88;11.55;;;;;;;;;;10484808;28;20968;-81
2022/05/15 01:45:46;;;;;;;14.30;12.05;;;;;;;;;;10485637;28;20398;-81
2022/05/15 01:50:48;;;;;;;12.63;11.32;;;;;;;;;;10482918;28;20398;-81
2022/05/15 01:55:52;;;;;;;11.98;10.75;;;;;;;;;;10487680;28;20408;-80
2022/05/15 02:00:54;;;;;;;12.38;10.60;;;;;;;;;;10487715;28;20416;-79
2022/05/15 02:05:55;;;;;;;12.37;10.37;;;;;;;;;;10486659;28;20397;-80
2022/05/15 02:10:59;;;;;;;12.37;10.43;;;;;;;;;;10485322;28;20410;-79
2022/05/15 02:16:01;;;;;;;12.30;10.32;;;;;;;;;;10486264;28;20484;-81
2022/05/15 02:21:03;;;;;;;12.63;10.98;;;;;;;;;;10485080;28;20471;-80
2022/05/15 02:26:06;;;;;;;13.07;10.93;;;;;;;;;;10485708;28;20889;-81
2022/05/15 02:31:08;;;;;;;11.57;9.73;;;;;;;;;;10486149;28;20404;-80
2022/05/15 02:36:10;;;;;;;13.47;10.03;;;;;;;;;;10485386;28;20493;-81
2022/05/15 02:41:14;;;;;;;11.48;10.15;;;;;;;;;;10484828;28;20425;-81
2022/05/15 02:46:16;;;;;;;12.00;9.85;;;;;;;;;;10476837;28;21301;-81
2022/05/15 02:51:17;;;;;;;14.20;10.00;;;;;;;;;;10483908;28;20401;-81
2022/05/15 02:56:24;;;;;;;11.95;10.25;;;;;;;;;;10484656;28;20910;-80
2022/05/15 03:01:26;;;;;;;12.13;10.32;;;;;;;;;;10484770;28;20489;-80
2022/05/15 03:06:28;;;;;;;13.00;10.97;;;;;;;;;;10484536;28;20536;-79
2022/05/15 03:11:32;;;;;;;11.20;9.87;;;;;;;;;;10483067;28;20420;-81
2022/05/15 03:16:33;;;;;;;12.02;10.20;;;;;;;;;;10484745;28;21229;-80
2022/05/15 03:21:35;;;;;;;10.98;9.25;;;;;;;;;;10483741;28;20489;-81
2022/05/15 03:26:41;;;;;;;10.52;9.43;;;;;;;;;;10483799;28;20409;-80
2022/05/15 03:31:43;;;;;;;16.40;10.20;;;;;;;;;;10483696;28;20497;-80
2022/05/15 03:36:51;;;;;;;11.57;9.73;;;;;;;;;;10483483;28;20398;-80
2022/05/15 03:41:54;;;;;;;10.60;9.50;;;;;;;;;;10483166;28;20414;-81
2022/05/15 03:46:55;;;;;;;11.18;9.80;;;;;;;;;;10482930;28;20406;-79
2022/05/15 03:51:57;;;;;;;11.18;10.07;;;;;;;;;;10483386;28;20596;-80
2022/05/15 03:57:01;;;;;;;12.07;9.83;;;;;;;;;;10482741;28;20508;-81
2022/05/15 04:02:05;;;;;;;16.48;9.90;;;;;;;;;;10482527;28;20490;-80
2022/05/15 04:07:07;;;;;;;10.80;9.03;;;;;;;;;;10475211;28;20597;-80
2022/05/15 04:12:11;;;;;;;10.10;9.10;;;;;;;;;;10484107;28;20493;-81
2022/05/15 04:17:13;;;;;;;11.60;9.57;;;;;;;;;;10477461;28;20416;-81
2022/05/15 04:22:15;;;;;;;10.23;9.20;;;;;;;;;;10476798;28;20491;-81
2022/05/15 04:27:19;;;;;;;11.43;9.57;;;;;;;;;;10488997;28;20579;-80
2022/05/15 04:32:20;;;;;;;10.77;9.20;;;;;;;;;;10493030;28;20599;-80
2022/05/15 04:37:22;;;;;;;9.80;8.80;;;;;;;;;;10508686;28;20502;-80
2022/05/15 04:42:25;;;;;;;11.88;8.45;;;;;;;;;;10492844;28;20999;-80
2022/05/15 04:47:27;;;;;;;9.77;8.43;;;;;;;;;;10509697;28;20394;-81
2022/05/15 04:52:29;;;;;;;10.38;9.02;;;;;;;;;;10505591;28;20481;-81
2022/05/15 04:57:32;;;;;;;10.15;9.15;;;;;;;;;;10488286;28;20414;-79
2022/05/15 05:02:34;;;;;;;10.07;8.70;;;;;;;;;;10493773;28;20410;-80
2022/05/15 05:07:36;;;;;;;10.18;9.18;;;;;;;;;;10504888;28;20513;-81
2022/05/15 05:12:39;;;;;;;10.48;8.98;;;;;;;;;;10491727;28;20396;-80
2022/05/15 05:17:41;;;;;;;10.60;9.00;;;;;;;;;;10508249;28;20408;-80
2022/05/15 05:22:43;;;;;;;10.52;9.45;;;;;;;;;;10503717;28;20475;-80
2022/05/15 05:27:46;;;;;;;10.77;9.35;;;;;;;;;;10505171;28;20410;-81
2022/05/15 05:32:49;;;;;;;10.85;8.80;;;;;;;;;;10497479;28;20585;-80
2022/05/15 05:37:52;;;;;;;14.03;8.60;;;;;;;;;;10502697;28;21010;-79
2022/05/15 05:42:55;;;;;;;11.27;8.83;;;;;;;;;;10493231;28;20483;-80
2022/05/15 05:47:57;;;;;;;9.95;8.13;;;;;;;;;;10506698;28;20411;-81
2022/05/15 05:52:59;;;;;;;9.03;7.53;;;;;;;;;;10502547;28;20404;-82
2022/05/15 05:58:02;;;;;;;8.80;7.88;;;;;;;;;;10484966;28;20453;-81
2022/05/15 06:08:27;;;;;;;8.05;7.25;;;;;;;;;;10481450;28;20395;-81
2022/05/15 06:13:31;;;;;;;11.17;7.63;;;;;;;;;;10494832;28;20408;-80
2022/05/15 06:18:33;;;;;;;10.00;7.53;;;;;;;;;;10505704;28;20489;-82
2022/05/15 06:23:34;;;;;;;8.32;6.72;;;;;;;;;;10499117;28;20405;-83
2022/05/15 06:28:38;;;;;;;11.57;6.55;;;;;;;;;;10484810;28;20398;-81
2022/05/15 06:33:39;;;;;;;10.07;6.88;;;;;;;;;;10494762;28;20435;-82
2022/05/15 06:38:42;;;;;;;7.72;6.57;;;;;;;;;;10492509;28;20421;-82
2022/05/15 06:43:46;;;;;;;8.13;6.60;;;;;;;;;;10490326;28;20406;-80
2022/05/15 06:48:48;;;;;;;8.63;6.73;;;;;;;;;;10501727;28;20833;-82
2022/05/15 06:53:50;;;;;;;7.82;6.90;;;;;;;;;;10482083;28;20407;-80
2022/05/15 06:58:53;;;;;;;7.60;6.37;;;;;;;;;;10479592;28;20430;-82
2022/05/15 07:03:55;;;;;;;7.97;5.93;;;;;;;;;;10491887;28;20456;-81
2022/05/15 07:08:57;;;;;;;7.25;6.47;;;;;;;;;;10483637;28;20581;-81
2022/05/15 07:14:00;;;;;;;7.63;6.57;;;;;;;;;;10492062;28;20408;-82
2022/05/15 07:19:02;;;;;;;7.25;5.85;;;;;;;;;;10498939;28;20797;-82
2022/05/15 07:24:05;;;;;;;6.95;6.10;;;;;;;;;;10481416;28;20410;-81
2022/05/15 07:29:08;;;;;;;6.97;6.20;;;;;;;;;;10478152;28;20414;-82
2022/05/15 07:34:10;;;;;;;6.80;6.10;;;;;;;;;;10496446;28;20432;-81
2022/05/15 07:39:12;;;;;;;7.00;6.03;;;;;;;;;;10488952;28;20422;-81
2022/05/15 07:44:15;;;;;;;7.25;6.38;;;;;;;;;;10478154;22;20408;-81
2022/05/15 07:49:17;;;;;;;8.38;6.10;;;;;;;;;;10437995;28;20419;-83
2022/05/15 07:54:20;;;;;;;7.03;5.85;;;;;;;;;;10437339;28;20422;-82
2022/05/15 07:59:23;;;;;;;10.37;6.43;;;;;;;;;;10445695;28;20415;-83
2022/05/15 08:04:25;;;;;;;6.15;5.50;;;;;;;;;;10446272;28;20407;-83
2022/05/15 08:09:27;;;;;;;6.57;5.13;;;;;;;;;;10446162;28;20421;-84
2022/05/15 08:14:30;;;;;;;5.68;5.13;;;;;;;;;;10448072;28;20890;-83
2022/05/15 08:24:52;;;;;;;5.47;4.90;;;;;;;;;;10444999;28;20930;-82
2022/05/15 08:29:55;;;;;;;5.00;4.60;;;;;;;;;;10449372;28;20407;-83
2022/05/15 08:34:57;;;;;;;4.95;4.43;;;;;;;;;;10444744;28;20403;-83
2022/05/15 08:39:59;;;;;;;4.65;4.18;;;;;;;;;;10442291;28;20439;-83
2022/05/15 08:45:03;;;;;;;4.78;4.32;;;;;;;;;;10445204;28;20442;-82
2022/05/15 08:50:09;;;;;;;4.32;3.83;;;;;;;;;;10444957;28;20759;-84
2022/05/15 08:55:14;;;;;;;6.53;4.43;;;;;;;;;;10439712;28;20424;-83
2022/05/15 09:00:22;;;;;;;4.63;4.20;;;;;;;;;;10443435;28;20473;-83
2022/05/15 09:05:27;;;;;;;5.55;5.00;;;;;;;;;;10454989;28;20394;-84
2022/05/15 09:10:34;;;;;;;5.05;4.50;;;;;;;;;;10445186;28;20411;-83
2022/05/15 09:15:46;;;;;;;9.68;4.63;;;;;;;;;;10443713;28;20954;-82
2022/05/15 09:20:57;;;;;;;5.20;4.30;;;;;;;;;;10454171;28;20435;-84
2022/05/15 09:26:01;;;;;;;10.00;4.72;;;;;;;;;;10442379;28;20469;-83
2022/05/15 09:31:06;;;;;;;5.50;5.00;;;;;;;;;;10447012;28;20589;-80
2022/05/15 09:36:20;;;;;;;5.10;4.43;;;;;;;;;;10444358;28;20752;-83
2022/05/15 09:46:57;;;;;;;5.27;4.30;;;;;;;;;;10435366;28;20891;-84
2022/05/15 09:52:02;;;;;;;4.40;4.00;;;;;;;;;;10439580;28;20921;-83
2022/05/15 09:57:22;;;;;;;4.43;3.90;;;;;;;;;;10438359;28;20424;-83
2022/05/15 10:02:27;;;;;;;4.68;3.55;;;;;;;;;;10434473;28;20420;-83
2022/05/15 10:07:33;;;;;;;4.73;3.80;;;;;;;;;;10437487;28;20403;-86
2022/05/15 10:12:38;;;;;;;4.87;4.20;;;;;;;;;;10438072;28;20892;-83
2022/05/15 10:17:49;;;;;;;6.37;4.20;;;;;;;;;;10439165;28;20490;-83
2022/05/15 10:22:56;;;;;;;6.30;4.27;;;;;;;;;;10434350;28;20419;-83
2022/05/15 10:28:08;;;;;;;4.30;3.85;;;;;;;;;;10438854;28;20407;-83
2022/05/15 10:33:18;;;;;;;4.43;4.03;;;;;;;;;;10438701;28;20506;-84
2022/05/15 10:38:34;;;;;;;5.60;4.07;;;;;;;;;;10436621;28;20921;-83
2022/05/15 10:43:46;;;;;;;5.00;3.70;;;;;;;;;;10437885;28;20414;-83
2022/05/15 10:48:59;;;;;;;4.15;3.75;;;;;;;;;;10437848;28;20824;-83
2022/05/15 10:59:45;;;;;;;6.85;4.63;;;;;;;;;;10434279;28;20871;-83
2022/05/15 11:04:53;;;;;;;7.45;4.93;;;;;;;;;;10437091;28;20426;-84
2022/05/15 11:10:06;;;;;;;5.93;4.87;;;;;;;;;;10432080;28;20422;-84
2022/05/15 11:15:30;;;;;;;5.32;4.82;;;;;;;;;;10437288;28;20593;-84
2022/05/15 11:20:39;;;;;;;5.50;4.97;;;;;;;;;;10436711;28;20426;-83
2022/05/15 11:25:47;;;;;;;7.43;5.30;;;;;;;;;;10433439;28;20746;-83
2022/05/15 11:31:01;;;;;;;6.75;5.35;;;;;;;;;;10438686;28;20414;-83
2022/05/15 11:36:13;;;;;;;6.23;5.63;;;;;;;;;;10435703;28;20434;-84
2022/05/15 11:41:32;;;;;;;7.78;5.97;;;;;;;;;;10436886;28;20415;-83
2022/05/15 11:47:03;;;;;;;8.13;6.43;;;;;;;;;;10435454;28;20883;-84
2022/05/15 11:52:33;;;;;;;6.83;6.03;;;;;;;;;;10435471;28;20483;-84
2022/05/15 11:57:40;;;;;;;7.88;5.90;;;;;;;;;;10437138;28;20412;-84
2022/05/15 12:03:03;;;;;;;6.53;5.72;;;;;;;;;;10437671;28;20463;-82
2022/05/15 12:08:32;;;;;;;6.43;5.82;;;;;;;;;;10430575;28;20400;-84
2022/05/15 12:13:38;;;;;;;6.10;5.38;;;;;;;;;;10435537;28;20414;-83
2022/05/15 12:18:43;;;;;;;8.50;6.70;;;;;;;;;;10437162;28;20415;-84
2022/05/15 12:29:13;;;;;;;6.32;5.72;;;;;;;;;;10434976;28;20398;-83
2022/05/15 12:34:19;;;;;;;7.50;5.70;;;;;;;;;;10437699;28;20407;-84
2022/05/15 12:39:25;;;;;;;6.20;5.53;;;;;;;;;;10432244;28;20416;-83
2022/05/15 12:44:32;;;;;;;7.05;6.07;;;;;;;;;;10438251;28;20921;-82
2022/05/15 12:49:35;;;;;;;7.07;6.07;;;;;;;;;;10444677;28;20893;-84
2022/05/15 12:54:39;;;;;;;6.67;5.80;;;;;;;;;;10443732;28;20498;-85
2022/05/15 12:59:44;;;;;;;6.35;5.78;;;;;;;;;;10444109;28;20429;-84
2022/05/15 13:04:48;;;;;;;7.53;6.03;;;;;;;;;;10443313;28;20410;-83
2022/05/15 13:09:59;;;;;;;7.47;5.93;;;;;;;;;;10443569;28;20410;-85
2022/05/15 13:15:03;;;;;;;6.93;6.22;;;;;;;;;;10441232;28;20478;-84
2022/05/15 13:20:09;;;;;;;7.43;5.57;;;;;;;;;;10443954;28;20896;-84
2022/05/15 13:25:14;;;;;;;7.35;5.95;;;;;;;;;;10443010;28;20486;-84
2022/05/15 13:30:19;;;;;;;7.15;6.40;;;;;;;;;;10442872;28;20479;-82
2022/05/15 13:35:21;;;;;;;7.57;6.20;;;;;;;;;;10443188;28;20403;-83
2022/05/15 13:45:52;;;;;;;6.30;5.70;;;;;;;;;;10441437;28;20419;-84
2022/05/15 13:50:56;;;;;;;8.63;5.60;;;;;;;;;;10437600;28;20429;-84
2022/05/15 13:56:01;;;;;;;6.57;5.82;;;;;;;;;;10441660;28;20494;-83
2022/05/15 14:01:05;;;;;;;6.82;5.80;;;;;;;;;;10441599;28;20756;-84
2022/05/15 14:06:18;;;;;;;6.65;5.93;;;;;;;;;;10442042;28;20754;-84
2022/05/15 14:11:21;;;;;;;10.27;5.80;;;;;;;;;;10441077;28;20408;-84
2022/05/15 14:16:26;;;;;;;6.20;5.70;;;;;;;;;;10441174;28;20415;-85
2022/05/15 14:21:29;;;;;;;6.57;5.43;;;;;;;;;;10438377;28;20951;-83
2022/05/15 14:26:32;;;;;;;5.68;5.18;;;;;;;;;;10440549;28;20407;-84
2022/05/15 14:31:39;;;;;;;6.90;5.60;;;;;;;;;;10442176;28;20483;-84
2022/05/15 14:36:41;;;;;;;6.47;5.87;;;;;;;;;;10467905;28;20402;-84
2022/05/15 14:41:44;;;;;;;7.28;6.18;;;;;;;;;;10463990;28;20418;-84
2022/05/15 14:46:46;;;;;;;6.45;5.45;;;;;;;;;;10440723;28;20431;-84
2022/05/15 14:51:48;;;;;;;6.37;5.63;;;;;;;;;;10443019;28;20394;-85
2022/05/15 14:56:52;;;;;;;8.57;6.05;;;;;;;;;;10439113;28;20482;-84
2022/05/15 15:01:54;;;;;;;6.00;5.50;;;;;;;;;;10443465;28;20431;-85
2022/05/15 15:06:57;;;;;;;6.57;5.22;;;;;;;;;;10435948;28;20879;-85
2022/05/15 15:12:01;;;;;;;6.97;5.50;;;;;;;;;;10439628;28;20482;-84
2022/05/15 15:17:04;;;;;;;5.95;5.35;;;;;;;;;;10461081;28;20405;-82
2022/05/15 15:22:06;;;;;;;6.20;5.60;;;;;;;;;;10446090;28;20427;-83
2022/05/15 15:27:09;;;;;;;6.13;5.30;;;;;;;;;;10438941;28;20659;-84
2022/05/15 15:32:11;;;;;;;6.20;5.60;;;;;;;;;;10444200;28;20436;-84
2022/05/15 15:42:34;;;;;;;7.17;5.20;;;;;;;;;;10438601;28;20756;-84
2022/05/15 15:47:35;;;;;;;6.88;5.43;;;;;;;;;;10440474;28;20487;-82
2022/05/15 15:52:40;;;;;;;6.30;5.70;;;;;;;;;;10442847;28;20414;-84
2022/05/15 15:57:43;;;;;;;6.93;5.67;;;;;;;;;;10455966;28;20398;-83
2022/05/15 16:02:45;;;;;;;6.27;5.67;;;;;;;;;;10456497;28;20419;-84
2022/05/15 16:07:47;;;;;;;5.80;5.30;;;;;;;;;;10458859;28;20407;-84
2022/05/15 16:12:50;;;;;;;7.47;5.45;;;;;;;;;;10446277;28;20405;-84
2022/05/15 16:17:52;;;;;;;7.13;5.75;;;;;;;;;;10450608;28;20482;-84
2022/05/15 16:22:54;;;;;;;7.00;5.20;;;;;;;;;;10457383;28;20430;-84
2022/05/15 16:27:58;;;;;;;7.07;4.38;;;;;;;;;;10456976;28;20477;-85
2022/05/15 16:33:02;;;;;;;5.27;4.20;;;;;;;;;;10457710;28;20411;-84
2022/05/15 16:38:04;;;;;;;5.20;3.90;;;;;;;;;;10455811;28;20411;-84
2022/05/15 16:43:07;;;;;;;5.87;3.80;;;;;;;;;;10458268;28;20957;-85
2022/05/15 16:48:09;;;;;;;4.87;4.00;;;;;;;;;;10442395;28;20419;-88
2022/05/15 16:53:12;;;;;;;4.85;3.42;;;;;;;;;;10434272;28;20497;-88
2022/05/15 16:58:16;;;;;;;4.05;3.58;;;;;;;;;;10444453;28;20923;-88
2022/05/15 17:03:18;;;;;;;4.20;3.80;;;;;;;;;;10434714;28;20446;-88
2022/05/15 17:08:20;;;;;;;6.55;4.03;;;;;;;;;;10435358;28;20496;-88
2022/05/15 17:13:24;;;;;;;4.20;3.80;;;;;;;;;;10444197;28;20406;-87
2022/05/15 17:18:25;;;;;;;4.67;3.83;;;;;;;;;;10429911;28;20427;-87
2022/05/15 17:23:28;;;;;;;4.15;3.70;;;;;;;;;;10446648;28;20433;-88
2022/05/15 17:39:10;;;;;;;7.23;3.70;;;;;;;;;;10444058;28;20437;-83
2022/05/15 17:44:13;;;;;;;5.78;3.65;;;;;;;;;;10444846;28;20869;-84
2022/05/15 17:49:15;;;;;;;3.83;3.30;;;;;;;;;;10442322;28;20448;-84
2022/05/15 17:54:17;;;;;;;4.53;3.20;;;;;;;;;;10445317;28;20410;-85
2022/05/15 17:59:20;;;;;;;4.50;3.10;;;;;;;;;;10444089;28;20417;-83
2022/05/15 18:04:22;;;;;;;5.57;3.30;;;;;;;;;;10435887;28;20865;-83
2022/05/15 18:09:24;;;;;;;6.20;3.50;;;;;;;;;;10434721;28;20419;-83
2022/05/15 18:14:27;;;;;;;5.43;3.17;;;;;;;;;;10437814;28;20488;-84
2022/05/15 18:19:29;;;;;;;4.07;3.40;;;;;;;;;;10438102;28;20495;-84
2022/05/15 18:24:31;;;;;;;5.37;3.60;;;;;;;;;;10426550;28;20934;-85
2022/05/15 18:29:35;;;;;;;6.13;3.20;;;;;;;;;;10428861;28;20399;-85
2022/05/15 18:34:37;;;;;;;4.83;3.90;;;;;;;;;;10438348;28;20517;-85
2022/05/15 18:39:39;;;;;;;4.60;3.50;;;;;;;;;;10431404;28;20504;-85
2022/05/15 18:44:42;;;;;;;4.40;3.50;;;;;;;;;;10437936;28;20414;-85
2022/05/15 18:55:03;;;;;;;4.47;3.67;;;;;;;;;;10397863;28;20392;-85
2022/05/15 19:00:08;;;;;;;6.35;3.70;;;;;;;;;;10436609;28;20444;-85
2022/05/15 19:05:10;;;;;;;6.63;4.10;;;;;;;;;;10436524;28;20418;-85
2022/05/15 19:10:13;;;;;;;5.70;3.90;;;;;;;;;;10433244;28;20411;-85
2022/05/15 19:15:17;;;;;;;4.93;3.85;;;;;;;;;;10437784;28;20413;-85
2022/05/15 19:20:20;;;;;;;4.85;4.20;;;;;;;;;;10433431;28;20750;-85
2022/05/15 19:25:22;;;;;;;4.60;4.13;;;;;;;;;;10435041;28;20813;-85
2022/05/15 19:30:25;;;;;;;4.53;4.07;;;;;;;;;;10434137;28;20414;-85
2022/05/15 19:35:27;;;;;;;6.13;4.20;;;;;;;;;;10435434;28;20485;-85
2022/05/15 19:40:29;;;;;;;4.57;3.78;;;;;;;;;;10433311;28;20422;-84
2022/05/15 19:45:52;;;;;;;5.40;3.90;;;;;;;;;;10447213;22;20449;-84
2022/05/15 19:56:39;;;;;;;7.78;4.57;;;;;;;;;;11042363;22;20438;-86
2022/05/15 20:01:52;;;;;;;5.43;4.30;;;;;;;;;;10491434;22;20574;-87
2022/05/15 20:17:55;;;;;;;6.47;4.30;;;;;;;;;;10738424;22;20525;-85
2022/05/15 20:23:02;;;;;;;7.43;4.63;;;;;;;;;;10473942;28;20518;-86
2022/05/15 20:33:33;;;;;;;7.05;4.70;;;;;;;;;;11028923;22;20517;-85
2022/05/15 20:44:26;;;;;;;5.57;4.95;;;;;;;;;;10695828;22;20598;-86
2022/05/15 20:49:32;;;;;;;7.00;5.07;;;;;;;;;;10409606;28;20462;-87
2022/05/15 20:54:34;;;;;;;7.32;5.97;;;;;;;;;;10409630;28;20461;-88
2022/05/15 20:59:36;;;;;;;7.80;6.07;;;;;;;;;;10406022;28;20421;-86
2022/05/15 21:04:39;;;;;;;5.88;5.18;;;;;;;;;;10412090;28;20953;-87
2022/05/15 21:09:42;;;;;;;7.75;5.40;;;;;;;;;;10415620;28;20485;-88
2022/05/15 21:14:43;;;;;;;6.57;5.20;;;;;;;;;;10424464;28;20415;-87
2022/05/15 21:19:48;;;;;;;6.50;5.20;;;;;;;;;;10437303;28;20414;-88
2022/05/15 21:24:51;;;;;;;6.72;5.00;;;;;;;;;;10434365;28;20425;-87
2022/05/15 21:29:53;;;;;;;5.47;4.87;;;;;;;;;;10424258;28;20401;-88
2022/05/15 21:34:56;;;;;;;7.90;5.30;;;;;;;;;;10424321;28;20406;-87
2022/05/15 21:45:19;;;;;;;7.60;6.40;;;;;;;;;;10416016;28;20405;-87
2022/05/15 21:50:22;;;;;;;6.50;5.57;;;;;;;;;;10415471;28;20456;-88
2022/05/15 21:55:25;;;;;;;6.88;6.18;;;;;;;;;;10418968;28;20899;-87
2022/05/15 22:00:45;;;;;;;7.07;5.77;;;;;;;;;;10413415;28;20504;-88
2022/05/15 22:06:03;;;;;;;7.50;5.75;;;;;;;;;;10421106;28;20523;-87
2022/05/15 22:11:07;;;;;;;7.82;5.68;;;;;;;;;;10410088;28;20731;-88
2022/05/15 22:16:09;;;;;;;7.75;5.72;;;;;;;;;;10418481;28;20553;-88
2022/05/15 22:21:12;;;;;;;7.40;5.40;;;;;;;;;;10416422;28;20516;-87
2022/05/15 22:26:14;;;;;;;6.28;5.68;;;;;;;;;;10416284;28;20417;-87
2022/05/15 22:31:16;;;;;;;7.25;5.80;;;;;;;;;;10417035;28;20422;-89
2022/05/15 22:36:20;;;;;;;7.05;6.35;;;;;;;;;;10415489;28;20417;-89
2022/05/15 22:41:21;;;;;;;7.05;5.88;;;;;;;;;;10414202;28;20419;-89
2022/05/15 22:46:25;;;;;;;8.20;6.32;;;;;;;;;;10414693;28;20500;-89
2022/05/15 22:51:30;;;;;;;6.60;5.88;;;;;;;;;;10420621;28;20469;-88
2022/05/15 22:56:32;;;;;;;8.40;7.20;;;;;;;;;;10423055;28;20488;-89
2022/05/15 23:01:34;;;;;;;9.30;7.70;;;;;;;;;;10424745;28;20455;-89
2022/05/15 23:11:57;;;;;;;9.98;7.80;;;;;;;;;;10427058;28;20405;-89
2022/05/15 23:16:59;;;;;;;8.77;7.47;;;;;;;;;;10419861;28;20500;-86
2022/05/15 23:22:02;;;;;;;8.05;7.03;;;;;;;;;;10421102;28;20518;-87
2022/05/15 23:27:04;;;;;;;9.03;7.57;;;;;;;;;;10424334;28;20849;-88
2022/05/15 23:32:07;;;;;;;7.90;6.75;;;;;;;;;;10421617;28;20427;-86
2022/05/15 23:37:10;;;;;;;8.65;7.30;;;;;;;;;;10421177;28;20409;-87
2022/05/15 23:42:13;;;;;;;10.30;7.33;;;;;;;;;;10423979;28;20415;-88
2022/05/15 23:47:15;;;;;;;8.10;7.05;;;;;;;;;;10418781;28;20502;-88
2022/05/15 23:52:20;;;;;;;8.05;6.90;;;;;;;;;;10421320;28;20495;-88
2022/05/15 23:57:22;;;;;;;8.75;6.93;;;;;;;;;;10416533;28;20518;-88
